sensor_id;sensor_type;location;lat;lon;timestamp;temperature;humidity
9943;DHT22;5010;45.080;7.634;2024-03-25T00:00:24;7.60;1.00
9943;DHT22;5010;45.080;7.634;2024-03-25T00:02:51;7.70;1.00
9943;DHT22;5010;45.080;7.634;2024-03-25T00:05:20;7.70;1.00
9943;DHT22;5010;45.080;7.634;2024-03-25T00:07:48;7.70;1.00
9943;DHT22;5010;45.080;7.634;2024-03-25T00:10:17;7.40;1.00
9943;DHT22;5010;45.080;7.634;2024-03-25T00:12:44;7.20;1.00
9943;DHT22;5010;45.080;7.634;2024-03-25T00:15:13;7.10;1.00
9943;DHT22;5010;45.080;7.634;2024-03-25T00:17:40;7.10;1.00
9943;DHT22;5010;45.080;7.634;2024-03-25T00:20:09;7.10;1.00
9943;DHT22;5010;45.080;7.634;2024-03-25T00:22:36;7.00;1.00
9943;DHT22;5010;45.080;7.634;2024-03-25T00:25:04;6.90;1.00
9943;DHT22;5010;45.080;7.634;2024-03-25T00:27:31;6.90;1.00
9943;DHT22;5010;45.080;7.634;2024-03-25T00:29:59;7.00;1.00
9943;DHT22;5010;45.080;7.634;2024-03-25T00:32:28;7.10;1.00
9943;DHT22;5010;45.080;7.634;2024-03-25T00:34:56;7.10;1.00
9943;DHT22;5010;45.080;7.634;2024-03-25T00:37:23;7.30;1.00
9943;DHT22;5010;45.080;7.634;2024-03-25T00:39:51;7.40;1.00
9943;DHT22;5010;45.080;7.634;2024-03-25T00:42:19;7.30;1.00
9943;DHT22;5010;45.080;7.634;2024-03-25T00:44:46;7.30;1.00
9943;DHT22;5010;45.080;7.634;2024-03-25T00:47:14;7.30;1.00
9943;DHT22;5010;45.080;7.634;2024-03-25T00:49:42;7.30;1.00
9943;DHT22;5010;45.080;7.634;2024-03-25T00:52:10;7.20;1.00
9943;DHT22;5010;45.080;7.634;2024-03-25T00:54:37;7.00;1.00
9943;DHT22;5010;45.080;7.634;2024-03-25T00:57:05;6.80;1.00
9943;DHT22;5010;45.080;7.634;2024-03-25T00:59:32;6.80;1.00
9943;DHT22;5010;45.080;7.634;2024-03-25T01:02:00;6.70;1.00
9943;DHT22;5010;45.080;7.634;2024-03-25T01:04:27;6.60;1.00
9943;DHT22;5010;45.080;7.634;2024-03-25T01:06:57;6.50;1.00
9943;DHT22;5010;45.080;7.634;2024-03-25T01:09:23;6.50;1.00
9943;DHT22;5010;45.080;7.634;2024-03-25T01:11:52;6.70;1.00
9943;DHT22;5010;45.080;7.634;2024-03-25T01:14:19;6.80;1.00
9943;DHT22;5010;45.080;7.634;2024-03-25T01:16:47;6.80;1.00
9943;DHT22;5010;45.080;7.634;2024-03-25T01:19:14;6.60;1.00
9943;DHT22;5010;45.080;7.634;2024-03-25T01:21:42;6.50;1.00
9943;DHT22;5010;45.080;7.634;2024-03-25T01:24:10;6.30;1.00
9943;DHT22;5010;45.080;7.634;2024-03-25T01:26:38;6.30;1.00
9943;DHT22;5010;45.080;7.634;2024-03-25T01:29:05;6.40;1.00
9943;DHT22;5010;45.080;7.634;2024-03-25T01:31:33;6.30;1.00
9943;DHT22;5010;45.080;7.634;2024-03-25T01:34:00;6.30;1.00
9943;DHT22;5010;45.080;7.634;2024-03-25T01:36:28;6.20;1.00
9943;DHT22;5010;45.080;7.634;2024-03-25T01:38:55;6.10;1.00
9943;DHT22;5010;45.080;7.634;2024-03-25T01:41:25;6.00;1.00
9943;DHT22;5010;45.080;7.634;2024-03-25T01:43:53;6.10;1.00
9943;DHT22;5010;45.080;7.634;2024-03-25T01:46:21;6.30;1.00
9943;DHT22;5010;45.080;7.634;2024-03-25T01:48:51;6.30;1.00
9943;DHT22;5010;45.080;7.634;2024-03-25T01:51:21;6.20;1.00
9943;DHT22;5010;45.080;7.634;2024-03-25T01:53:48;6.20;1.00
9943;DHT22;5010;45.080;7.634;2024-03-25T01:56:17;6.30;1.00
9943;DHT22;5010;45.080;7.634;2024-03-25T01:58:47;6.40;1.00
9943;DHT22;5010;45.080;7.634;2024-03-25T02:01:15;6.40;1.00
9943;DHT22;5010;45.080;7.634;2024-03-25T02:03:42;6.30;1.00
9943;DHT22;5010;45.080;7.634;2024-03-25T02:06:13;6.20;1.00
9943;DHT22;5010;45.080;7.634;2024-03-25T02:08:41;6.20;1.00
9943;DHT22;5010;45.080;7.634;2024-03-25T02:11:10;6.30;1.00
9943;DHT22;5010;45.080;7.634;2024-03-25T02:13:39;6.30;1.00
9943;DHT22;5010;45.080;7.634;2024-03-25T02:16:08;6.30;1.00
9943;DHT22;5010;45.080;7.634;2024-03-25T02:18:35;6.20;1.00
9943;DHT22;5010;45.080;7.634;2024-03-25T02:21:04;6.20;1.00
9943;DHT22;5010;45.080;7.634;2024-03-25T02:23:33;6.20;1.00
9943;DHT22;5010;45.080;7.634;2024-03-25T02:26:03;6.20;1.00
9943;DHT22;5010;45.080;7.634;2024-03-25T02:28:30;6.30;1.00
9943;DHT22;5010;45.080;7.634;2024-03-25T02:30:58;6.20;1.00
9943;DHT22;5010;45.080;7.634;2024-03-25T02:33:25;6.00;1.00
9943;DHT22;5010;45.080;7.634;2024-03-25T02:35:53;6.00;1.00
9943;DHT22;5010;45.080;7.634;2024-03-25T02:38:20;6.00;1.00
9943;DHT22;5010;45.080;7.634;2024-03-25T02:40:49;6.20;1.00
9943;DHT22;5010;45.080;7.634;2024-03-25T02:43:18;6.20;1.00
9943;DHT22;5010;45.080;7.634;2024-03-25T02:45:47;6.20;1.00
9943;DHT22;5010;45.080;7.634;2024-03-25T02:48:14;6.10;1.00
9943;DHT22;5010;45.080;7.634;2024-03-25T02:50:42;6.20;1.00
9943;DHT22;5010;45.080;7.634;2024-03-25T02:53:09;6.10;1.00
9943;DHT22;5010;45.080;7.634;2024-03-25T02:55:37;6.10;1.00
9943;DHT22;5010;45.080;7.634;2024-03-25T02:58:04;6.20;1.00
9943;DHT22;5010;45.080;7.634;2024-03-25T03:00:34;6.00;1.00
9943;DHT22;5010;45.080;7.634;2024-03-25T03:03:00;5.90;1.00
9943;DHT22;5010;45.080;7.634;2024-03-25T03:05:29;5.90;1.00
9943;DHT22;5010;45.080;7.634;2024-03-25T03:07:56;5.80;1.00
9943;DHT22;5010;45.080;7.634;2024-03-25T03:10:24;5.90;1.00
9943;DHT22;5010;45.080;7.634;2024-03-25T03:12:51;6.00;1.00
9943;DHT22;5010;45.080;7.634;2024-03-25T03:15:18;5.90;1.00
9943;DHT22;5010;45.080;7.634;2024-03-25T03:17:47;6.00;1.00
9943;DHT22;5010;45.080;7.634;2024-03-25T03:20:15;6.00;1.00
9943;DHT22;5010;45.080;7.634;2024-03-25T03:22:42;6.00;1.00
9943;DHT22;5010;45.080;7.634;2024-03-25T03:25:10;5.90;1.00
9943;DHT22;5010;45.080;7.634;2024-03-25T03:27:36;5.90;1.00
9943;DHT22;5010;45.080;7.634;2024-03-25T03:30:05;5.90;1.00
9943;DHT22;5010;45.080;7.634;2024-03-25T03:32:33;6.00;1.00
9943;DHT22;5010;45.080;7.634;2024-03-25T03:35:02;6.10;1.00
9943;DHT22;5010;45.080;7.634;2024-03-25T03:37:30;6.20;1.00
9943;DHT22;5010;45.080;7.634;2024-03-25T03:39:57;6.20;1.00
9943;DHT22;5010;45.080;7.634;2024-03-25T03:42:25;6.30;1.00
9943;DHT22;5010;45.080;7.634;2024-03-25T03:44:51;6.30;1.00
9943;DHT22;5010;45.080;7.634;2024-03-25T03:47:19;6.30;1.00
9943;DHT22;5010;45.080;7.634;2024-03-25T03:49:46;6.20;1.00
9943;DHT22;5010;45.080;7.634;2024-03-25T03:52:16;6.20;1.00
9943;DHT22;5010;45.080;7.634;2024-03-25T03:54:43;6.20;1.00
9943;DHT22;5010;45.080;7.634;2024-03-25T03:57:10;6.30;1.00
9943;DHT22;5010;45.080;7.634;2024-03-25T03:59:37;6.30;1.00
9943;DHT22;5010;45.080;7.634;2024-03-25T04:02:05;6.30;1.00
9943;DHT22;5010;45.080;7.634;2024-03-25T04:04:32;6.30;1.00
9943;DHT22;5010;45.080;7.634;2024-03-25T04:07:01;6.20;1.00
9943;DHT22;5010;45.080;7.634;2024-03-25T04:09:29;6.20;1.00
9943;DHT22;5010;45.080;7.634;2024-03-25T04:11:57;6.10;1.00
9943;DHT22;5010;45.080;7.634;2024-03-25T04:14:24;6.10;1.00
9943;DHT22;5010;45.080;7.634;2024-03-25T04:16:52;6.10;1.00
9943;DHT22;5010;45.080;7.634;2024-03-25T04:19:19;6.00;1.00
9943;DHT22;5010;45.080;7.634;2024-03-25T04:21:47;5.90;1.00
9943;DHT22;5010;45.080;7.634;2024-03-25T04:24:14;5.80;1.00
9943;DHT22;5010;45.080;7.634;2024-03-25T04:26:44;5.60;1.00
9943;DHT22;5010;45.080;7.634;2024-03-25T04:29:11;5.60;1.00
9943;DHT22;5010;45.080;7.634;2024-03-25T04:31:39;5.70;1.00
9943;DHT22;5010;45.080;7.634;2024-03-25T04:34:06;5.80;1.00
9943;DHT22;5010;45.080;7.634;2024-03-25T04:36:34;5.80;1.00
9943;DHT22;5010;45.080;7.634;2024-03-25T04:39:01;5.80;1.00
9943;DHT22;5010;45.080;7.634;2024-03-25T04:41:28;5.80;1.00
9943;DHT22;5010;45.080;7.634;2024-03-25T04:43:56;5.70;1.00
9943;DHT22;5010;45.080;7.634;2024-03-25T04:46:23;5.70;1.00
9943;DHT22;5010;45.080;7.634;2024-03-25T04:48:49;5.60;1.00
9943;DHT22;5010;45.080;7.634;2024-03-25T04:51:16;5.50;1.00
9943;DHT22;5010;45.080;7.634;2024-03-25T04:53:43;5.50;1.00
9943;DHT22;5010;45.080;7.634;2024-03-25T04:56:09;5.50;1.00
9943;DHT22;5010;45.080;7.634;2024-03-25T04:58:36;5.50;1.00
9943;DHT22;5010;45.080;7.634;2024-03-25T05:01:04;5.50;1.00
9943;DHT22;5010;45.080;7.634;2024-03-25T05:03:31;5.40;1.00
9943;DHT22;5010;45.080;7.634;2024-03-25T05:05:58;5.30;1.00
9943;DHT22;5010;45.080;7.634;2024-03-25T05:08:25;5.40;1.00
9943;DHT22;5010;45.080;7.634;2024-03-25T05:10:52;5.40;1.00
9943;DHT22;5010;45.080;7.634;2024-03-25T05:13:20;5.40;1.00
9943;DHT22;5010;45.080;7.634;2024-03-25T05:15:50;5.40;1.00
9943;DHT22;5010;45.080;7.634;2024-03-25T05:18:19;5.50;1.00
9943;DHT22;5010;45.080;7.634;2024-03-25T05:20:46;5.60;1.00
9943;DHT22;5010;45.080;7.634;2024-03-25T05:23:12;5.70;1.00
9943;DHT22;5010;45.080;7.634;2024-03-25T05:25:39;5.80;1.00
9943;DHT22;5010;45.080;7.634;2024-03-25T05:28:06;5.70;1.00
9943;DHT22;5010;45.080;7.634;2024-03-25T05:30:33;5.60;1.00
9943;DHT22;5010;45.080;7.634;2024-03-25T05:33:00;5.60;1.00
9943;DHT22;5010;45.080;7.634;2024-03-25T05:35:28;5.50;1.00
9943;DHT22;5010;45.080;7.634;2024-03-25T05:37:55;5.50;1.00
9943;DHT22;5010;45.080;7.634;2024-03-25T05:40:21;5.60;1.00
9943;DHT22;5010;45.080;7.634;2024-03-25T05:42:48;5.60;1.00
9943;DHT22;5010;45.080;7.634;2024-03-25T05:45:15;5.60;1.00
9943;DHT22;5010;45.080;7.634;2024-03-25T05:47:42;5.60;1.00
9943;DHT22;5010;45.080;7.634;2024-03-25T05:50:09;5.60;1.00
9943;DHT22;5010;45.080;7.634;2024-03-25T05:52:37;5.50;1.00
9943;DHT22;5010;45.080;7.634;2024-03-25T05:55:04;5.50;1.00
9943;DHT22;5010;45.080;7.634;2024-03-25T05:57:31;5.70;1.00
9943;DHT22;5010;45.080;7.634;2024-03-25T05:59:58;5.80;1.00
9943;DHT22;5010;45.080;7.634;2024-03-25T06:02:25;5.80;1.00
9943;DHT22;5010;45.080;7.634;2024-03-25T06:04:51;5.70;1.00
9943;DHT22;5010;45.080;7.634;2024-03-25T06:07:18;5.50;1.00
9943;DHT22;5010;45.080;7.634;2024-03-25T06:09:47;5.50;1.00
9943;DHT22;5010;45.080;7.634;2024-03-25T06:12:13;5.60;1.00
9943;DHT22;5010;45.080;7.634;2024-03-25T06:14:40;5.70;1.00
9943;DHT22;5010;45.080;7.634;2024-03-25T06:17:07;5.70;1.00
9943;DHT22;5010;45.080;7.634;2024-03-25T06:19:34;5.70;1.00
9943;DHT22;5010;45.080;7.634;2024-03-25T06:22:00;5.80;1.00
9943;DHT22;5010;45.080;7.634;2024-03-25T06:24:27;5.80;1.00
9943;DHT22;5010;45.080;7.634;2024-03-25T06:26:55;5.80;1.00
9943;DHT22;5010;45.080;7.634;2024-03-25T06:29:22;5.70;1.00
9943;DHT22;5010;45.080;7.634;2024-03-25T06:31:49;5.70;1.00
9943;DHT22;5010;45.080;7.634;2024-03-25T06:34:34;5.70;1.00
9943;DHT22;5010;45.080;7.634;2024-03-25T06:37:01;5.70;1.00
9943;DHT22;5010;45.080;7.634;2024-03-25T06:39:27;5.70;1.00
9943;DHT22;5010;45.080;7.634;2024-03-25T06:41:56;5.90;1.00
9943;DHT22;5010;45.080;7.634;2024-03-25T06:44:22;6.20;1.00
9943;DHT22;5010;45.080;7.634;2024-03-25T06:46:49;6.20;1.00
9943;DHT22;5010;45.080;7.634;2024-03-25T06:49:16;6.40;1.00
9943;DHT22;5010;45.080;7.634;2024-03-25T06:51:43;6.60;1.00
9943;DHT22;5010;45.080;7.634;2024-03-25T06:54:09;7.00;1.00
9943;DHT22;5010;45.080;7.634;2024-03-25T06:56:36;7.30;1.00
9943;DHT22;5010;45.080;7.634;2024-03-25T06:59:04;7.70;1.00
9943;DHT22;5010;45.080;7.634;2024-03-25T07:01:31;7.80;1.00
9943;DHT22;5010;45.080;7.634;2024-03-25T07:03:58;8.10;1.00
9943;DHT22;5010;45.080;7.634;2024-03-25T07:06:25;8.50;1.00
9943;DHT22;5010;45.080;7.634;2024-03-25T07:08:51;8.70;1.00
9943;DHT22;5010;45.080;7.634;2024-03-25T07:11:18;8.90;1.00
9943;DHT22;5010;45.080;7.634;2024-03-25T07:13:45;9.00;1.00
9943;DHT22;5010;45.080;7.634;2024-03-25T07:16:13;9.10;1.00
9943;DHT22;5010;45.080;7.634;2024-03-25T07:18:40;9.30;1.00
9943;DHT22;5010;45.080;7.634;2024-03-25T07:21:07;9.60;1.00
9943;DHT22;5010;45.080;7.634;2024-03-25T07:23:34;9.90;1.00
9943;DHT22;5010;45.080;7.634;2024-03-25T07:26:00;10.30;1.00
9943;DHT22;5010;45.080;7.634;2024-03-25T07:28:27;10.50;1.00
9943;DHT22;5010;45.080;7.634;2024-03-25T07:30:54;10.60;1.00
9943;DHT22;5010;45.080;7.634;2024-03-25T07:33:22;10.90;1.00
9943;DHT22;5010;45.080;7.634;2024-03-25T07:35:49;11.10;1.00
9943;DHT22;5010;45.080;7.634;2024-03-25T07:38:15;11.40;1.00
9943;DHT22;5010;45.080;7.634;2024-03-25T07:40:42;11.70;1.00
9943;DHT22;5010;45.080;7.634;2024-03-25T07:43:09;11.90;1.00
9943;DHT22;5010;45.080;7.634;2024-03-25T07:45:36;12.10;1.00
9943;DHT22;5010;45.080;7.634;2024-03-25T07:48:03;12.20;1.00
9943;DHT22;5010;45.080;7.634;2024-03-25T07:50:31;12.30;1.00
9943;DHT22;5010;45.080;7.634;2024-03-25T07:52:58;12.40;1.00
9943;DHT22;5010;45.080;7.634;2024-03-25T07:55:28;12.60;1.00
9943;DHT22;5010;45.080;7.634;2024-03-25T07:57:54;12.80;1.00
9943;DHT22;5010;45.080;7.634;2024-03-25T08:00:21;12.90;1.00
9943;DHT22;5010;45.080;7.634;2024-03-25T08:02:48;13.00;1.00
9943;DHT22;5010;45.080;7.634;2024-03-25T08:05:15;13.00;1.00
9943;DHT22;5010;45.080;7.634;2024-03-25T08:07:43;13.10;1.00
9943;DHT22;5010;45.080;7.634;2024-03-25T08:10:10;13.10;1.00
9943;DHT22;5010;45.080;7.634;2024-03-25T08:12:37;13.10;1.00
9943;DHT22;5010;45.080;7.634;2024-03-25T08:15:04;13.20;1.00
9943;DHT22;5010;45.080;7.634;2024-03-25T08:17:31;13.30;1.00
9943;DHT22;5010;45.080;7.634;2024-03-25T08:19:58;13.30;1.00
9943;DHT22;5010;45.080;7.634;2024-03-25T08:22:25;13.40;1.00
9943;DHT22;5010;45.080;7.634;2024-03-25T08:24:53;13.60;1.00
9943;DHT22;5010;45.080;7.634;2024-03-25T08:27:20;13.80;1.00
9943;DHT22;5010;45.080;7.634;2024-03-25T08:29:46;13.80;1.00
9943;DHT22;5010;45.080;7.634;2024-03-25T08:32:13;14.00;1.00
9943;DHT22;5010;45.080;7.634;2024-03-25T08:34:40;14.10;1.00
9943;DHT22;5010;45.080;7.634;2024-03-25T08:37:07;14.10;1.00
9943;DHT22;5010;45.080;7.634;2024-03-25T08:39:33;14.20;1.00
9943;DHT22;5010;45.080;7.634;2024-03-25T08:42:02;14.30;1.00
9943;DHT22;5010;45.080;7.634;2024-03-25T08:44:29;14.40;1.00
9943;DHT22;5010;45.080;7.634;2024-03-25T08:46:56;14.50;1.00
9943;DHT22;5010;45.080;7.634;2024-03-25T08:49:23;14.50;1.00
9943;DHT22;5010;45.080;7.634;2024-03-25T08:51:49;14.50;1.00
9943;DHT22;5010;45.080;7.634;2024-03-25T08:54:16;14.70;1.00
9943;DHT22;5010;45.080;7.634;2024-03-25T08:56:43;14.70;1.00
9943;DHT22;5010;45.080;7.634;2024-03-25T08:59:11;14.80;1.00
9943;DHT22;5010;45.080;7.634;2024-03-25T09:01:38;14.80;1.00
9943;DHT22;5010;45.080;7.634;2024-03-25T09:04:05;14.90;1.00
9943;DHT22;5010;45.080;7.634;2024-03-25T09:06:31;14.90;1.00
9943;DHT22;5010;45.080;7.634;2024-03-25T09:08:58;14.70;1.00
9943;DHT22;5010;45.080;7.634;2024-03-25T09:11:43;14.70;1.00
9943;DHT22;5010;45.080;7.634;2024-03-25T09:14:12;14.90;1.00
9943;DHT22;5010;45.080;7.634;2024-03-25T09:16:38;15.00;1.00
9943;DHT22;5010;45.080;7.634;2024-03-25T09:19:07;15.20;1.00
9943;DHT22;5010;45.080;7.634;2024-03-25T09:21:34;15.30;1.00
9943;DHT22;5010;45.080;7.634;2024-03-25T09:24:01;15.20;1.00
9943;DHT22;5010;45.080;7.634;2024-03-25T09:26:27;15.30;1.00
9943;DHT22;5010;45.080;7.634;2024-03-25T09:28:54;15.30;1.00
9943;DHT22;5010;45.080;7.634;2024-03-25T09:31:22;15.50;1.00
9943;DHT22;5010;45.080;7.634;2024-03-25T09:33:49;15.70;1.00
9943;DHT22;5010;45.080;7.634;2024-03-25T09:36:16;15.70;1.00
9943;DHT22;5010;45.080;7.634;2024-03-25T09:38:43;15.80;1.00
9943;DHT22;5010;45.080;7.634;2024-03-25T09:41:09;15.80;1.00
9943;DHT22;5010;45.080;7.634;2024-03-25T09:43:43;15.60;1.00
9943;DHT22;5010;45.080;7.634;2024-03-25T09:46:11;15.60;1.00
9943;DHT22;5010;45.080;7.634;2024-03-25T09:48:40;15.60;1.00
9943;DHT22;5010;45.080;7.634;2024-03-25T09:51:08;15.70;1.00
9943;DHT22;5010;45.080;7.634;2024-03-25T09:53:35;15.90;1.00
9943;DHT22;5010;45.080;7.634;2024-03-25T09:56:02;16.10;1.00
9943;DHT22;5010;45.080;7.634;2024-03-25T09:58:31;16.30;1.00
9943;DHT22;5010;45.080;7.634;2024-03-25T10:00:58;16.30;1.00
9943;DHT22;5010;45.080;7.634;2024-03-25T10:03:25;16.20;1.00
9943;DHT22;5010;45.080;7.634;2024-03-25T10:05:53;16.10;1.00
9943;DHT22;5010;45.080;7.634;2024-03-25T10:08:21;16.30;1.00
9943;DHT22;5010;45.080;7.634;2024-03-25T10:10:48;16.50;1.00
9943;DHT22;5010;45.080;7.634;2024-03-25T10:13:16;16.60;1.00
9943;DHT22;5010;45.080;7.634;2024-03-25T10:15:42;16.70;1.00
9943;DHT22;5010;45.080;7.634;2024-03-25T10:18:11;16.80;1.00
9943;DHT22;5010;45.080;7.634;2024-03-25T10:20:38;17.00;1.00
9943;DHT22;5010;45.080;7.634;2024-03-25T10:23:09;17.10;1.00
9943;DHT22;5010;45.080;7.634;2024-03-25T10:25:36;17.00;1.00
9943;DHT22;5010;45.080;7.634;2024-03-25T10:28:04;17.00;1.00
9943;DHT22;5010;45.080;7.634;2024-03-25T10:30:31;16.90;1.00
9943;DHT22;5010;45.080;7.634;2024-03-25T10:32:59;16.90;1.00
9943;DHT22;5010;45.080;7.634;2024-03-25T10:35:27;16.80;1.00
9943;DHT22;5010;45.080;7.634;2024-03-25T10:38:00;16.90;1.00
9943;DHT22;5010;45.080;7.634;2024-03-25T10:40:30;17.00;1.00
9943;DHT22;5010;45.080;7.634;2024-03-25T10:43:01;16.80;1.00
9943;DHT22;5010;45.080;7.634;2024-03-25T10:45:30;16.80;1.00
9943;DHT22;5010;45.080;7.634;2024-03-25T10:48:03;16.90;1.00
9943;DHT22;5010;45.080;7.634;2024-03-25T10:50:30;17.00;1.00
9943;DHT22;5010;45.080;7.634;2024-03-25T10:52:58;17.10;1.00
9943;DHT22;5010;45.080;7.634;2024-03-25T10:55:28;17.10;1.00
9943;DHT22;5010;45.080;7.634;2024-03-25T10:57:56;16.90;1.00
9943;DHT22;5010;45.080;7.634;2024-03-25T11:00:23;16.90;1.00
9943;DHT22;5010;45.080;7.634;2024-03-25T11:02:51;16.90;1.00
9943;DHT22;5010;45.080;7.634;2024-03-25T11:05:18;16.90;1.00
9943;DHT22;5010;45.080;7.634;2024-03-25T11:07:45;16.80;1.00
9943;DHT22;5010;45.080;7.634;2024-03-25T11:10:12;16.60;1.00
9943;DHT22;5010;45.080;7.634;2024-03-25T11:12:41;16.60;1.00
9943;DHT22;5010;45.080;7.634;2024-03-25T11:15:09;16.40;1.00
9943;DHT22;5010;45.080;7.634;2024-03-25T11:17:36;16.20;1.00
9943;DHT22;5010;45.080;7.634;2024-03-25T11:20:14;16.00;1.00
9943;DHT22;5010;45.080;7.634;2024-03-25T11:22:52;15.90;1.00
9943;DHT22;5010;45.080;7.634;2024-03-25T11:25:20;16.00;1.00
9943;DHT22;5010;45.080;7.634;2024-03-25T11:27:49;16.00;1.00
9943;DHT22;5010;45.080;7.634;2024-03-25T11:30:15;16.10;1.00
9943;DHT22;5010;45.080;7.634;2024-03-25T11:32:44;16.10;1.00
9943;DHT22;5010;45.080;7.634;2024-03-25T11:35:11;16.20;1.00
9943;DHT22;5010;45.080;7.634;2024-03-25T11:37:41;16.30;1.00
9943;DHT22;5010;45.080;7.634;2024-03-25T11:40:09;16.40;1.00
9943;DHT22;5010;45.080;7.634;2024-03-25T11:42:37;16.40;1.00
9943;DHT22;5010;45.080;7.634;2024-03-25T11:45:06;16.40;1.00
9943;DHT22;5010;45.080;7.634;2024-03-25T11:47:33;16.50;1.00
9943;DHT22;5010;45.080;7.634;2024-03-25T11:50:00;16.60;1.00
9943;DHT22;5010;45.080;7.634;2024-03-25T11:52:33;16.70;1.00
9943;DHT22;5010;45.080;7.634;2024-03-25T11:55:00;16.60;1.00
9943;DHT22;5010;45.080;7.634;2024-03-25T11:57:28;16.10;1.00
9943;DHT22;5010;45.080;7.634;2024-03-25T11:59:55;16.00;1.00
9943;DHT22;5010;45.080;7.634;2024-03-25T12:02:23;15.90;1.00
9943;DHT22;5010;45.080;7.634;2024-03-25T12:04:51;15.90;1.00
9943;DHT22;5010;45.080;7.634;2024-03-25T12:07:18;15.80;1.00
9943;DHT22;5010;45.080;7.634;2024-03-25T12:09:45;15.70;1.00
9943;DHT22;5010;45.080;7.634;2024-03-25T12:12:30;15.70;1.00
9943;DHT22;5010;45.080;7.634;2024-03-25T12:14:58;15.90;1.00
9943;DHT22;5010;45.080;7.634;2024-03-25T12:17:27;16.00;1.00
9943;DHT22;5010;45.080;7.634;2024-03-25T12:20:03;16.30;1.00
9943;DHT22;5010;45.080;7.634;2024-03-25T12:22:31;16.10;1.00
9943;DHT22;5010;45.080;7.634;2024-03-25T12:24:58;16.10;1.00
9943;DHT22;5010;45.080;7.634;2024-03-25T12:27:25;16.20;1.00
9943;DHT22;5010;45.080;7.634;2024-03-25T12:29:59;16.10;1.00
9943;DHT22;5010;45.080;7.634;2024-03-25T12:32:50;15.90;1.00
9943;DHT22;5010;45.080;7.634;2024-03-25T12:35:18;16.00;1.00
9943;DHT22;5010;45.080;7.634;2024-03-25T12:37:46;16.00;1.00
9943;DHT22;5010;45.080;7.634;2024-03-25T12:40:26;15.90;1.00
9943;DHT22;5010;45.080;7.634;2024-03-25T12:42:53;15.50;1.00
9943;DHT22;5010;45.080;7.634;2024-03-25T12:45:20;15.50;1.00
9943;DHT22;5010;45.080;7.634;2024-03-25T12:47:48;15.50;1.00
9943;DHT22;5010;45.080;7.634;2024-03-25T12:50:15;15.70;1.00
9943;DHT22;5010;45.080;7.634;2024-03-25T12:52:42;15.80;1.00
9943;DHT22;5010;45.080;7.634;2024-03-25T12:55:08;15.90;1.00
9943;DHT22;5010;45.080;7.634;2024-03-25T12:57:36;15.80;1.00
9943;DHT22;5010;45.080;7.634;2024-03-25T13:00:03;15.60;1.00
9943;DHT22;5010;45.080;7.634;2024-03-25T13:02:30;15.50;1.00
9943;DHT22;5010;45.080;7.634;2024-03-25T13:04:59;15.50;1.00
9943;DHT22;5010;45.080;7.634;2024-03-25T13:07:25;15.60;1.00
9943;DHT22;5010;45.080;7.634;2024-03-25T13:09:52;15.80;1.00
9943;DHT22;5010;45.080;7.634;2024-03-25T13:12:19;15.80;1.00
9943;DHT22;5010;45.080;7.634;2024-03-25T13:14:45;15.50;1.00
9943;DHT22;5010;45.080;7.634;2024-03-25T13:17:12;15.40;1.00
9943;DHT22;5010;45.080;7.634;2024-03-25T13:19:39;15.50;1.00
9943;DHT22;5010;45.080;7.634;2024-03-25T13:22:07;15.60;1.00
9943;DHT22;5010;45.080;7.634;2024-03-25T13:24:35;15.50;1.00
9943;DHT22;5010;45.080;7.634;2024-03-25T13:27:02;15.60;1.00
9943;DHT22;5010;45.080;7.634;2024-03-25T13:29:29;15.40;1.00
9943;DHT22;5010;45.080;7.634;2024-03-25T13:31:56;15.10;1.00
9943;DHT22;5010;45.080;7.634;2024-03-25T13:34:23;14.90;1.00
9943;DHT22;5010;45.080;7.634;2024-03-25T13:36:50;14.80;1.00
9943;DHT22;5010;45.080;7.634;2024-03-25T13:39:18;14.70;1.00
9943;DHT22;5010;45.080;7.634;2024-03-25T13:41:45;14.60;1.00
9943;DHT22;5010;45.080;7.634;2024-03-25T13:44:12;14.70;1.00
9943;DHT22;5010;45.080;7.634;2024-03-25T13:46:38;14.90;1.00
9943;DHT22;5010;45.080;7.634;2024-03-25T13:49:05;15.10;1.00
9943;DHT22;5010;45.080;7.634;2024-03-25T13:51:32;15.10;1.00
9943;DHT22;5010;45.080;7.634;2024-03-25T13:53:59;15.10;1.00
9943;DHT22;5010;45.080;7.634;2024-03-25T13:56:27;14.90;1.00
9943;DHT22;5010;45.080;7.634;2024-03-25T13:58:54;14.80;1.00
9943;DHT22;5010;45.080;7.634;2024-03-25T14:01:20;14.70;1.00
9943;DHT22;5010;45.080;7.634;2024-03-25T14:03:47;14.60;1.00
9943;DHT22;5010;45.080;7.634;2024-03-25T14:06:14;14.60;1.00
9943;DHT22;5010;45.080;7.634;2024-03-25T14:08:40;14.70;1.00
9943;DHT22;5010;45.080;7.634;2024-03-25T14:11:07;14.90;1.00
9943;DHT22;5010;45.080;7.634;2024-03-25T14:13:35;15.00;1.00
9943;DHT22;5010;45.080;7.634;2024-03-25T14:16:03;15.00;1.00
9943;DHT22;5010;45.080;7.634;2024-03-25T14:18:29;15.10;1.00
9943;DHT22;5010;45.080;7.634;2024-03-25T14:20:56;15.00;1.00
9943;DHT22;5010;45.080;7.634;2024-03-25T14:23:23;14.90;1.00
9943;DHT22;5010;45.080;7.634;2024-03-25T14:25:50;14.90;1.00
9943;DHT22;5010;45.080;7.634;2024-03-25T14:28:17;14.80;1.00
9943;DHT22;5010;45.080;7.634;2024-03-25T14:30:45;14.60;1.00
9943;DHT22;5010;45.080;7.634;2024-03-25T14:33:11;14.40;1.00
9943;DHT22;5010;45.080;7.634;2024-03-25T14:35:38;14.40;1.00
9943;DHT22;5010;45.080;7.634;2024-03-25T14:38:05;14.30;1.00
9943;DHT22;5010;45.080;7.634;2024-03-25T14:40:32;14.10;1.00
9943;DHT22;5010;45.080;7.634;2024-03-25T14:42:58;14.10;1.00
9943;DHT22;5010;45.080;7.634;2024-03-25T14:45:25;14.20;1.00
9943;DHT22;5010;45.080;7.634;2024-03-25T14:47:53;14.40;1.00
9943;DHT22;5010;45.080;7.634;2024-03-25T14:50:20;14.40;1.00
9943;DHT22;5010;45.080;7.634;2024-03-25T14:52:46;14.30;1.00
9943;DHT22;5010;45.080;7.634;2024-03-25T14:55:13;14.30;1.00
9943;DHT22;5010;45.080;7.634;2024-03-25T14:57:40;14.30;1.00
9943;DHT22;5010;45.080;7.634;2024-03-25T15:00:07;14.30;1.00
9943;DHT22;5010;45.080;7.634;2024-03-25T15:02:34;14.30;1.00
9943;DHT22;5010;45.080;7.634;2024-03-25T15:05:03;14.10;1.00
9943;DHT22;5010;45.080;7.634;2024-03-25T15:07:30;14.00;1.00
9943;DHT22;5010;45.080;7.634;2024-03-25T15:09:56;13.90;1.00
9943;DHT22;5010;45.080;7.634;2024-03-25T15:12:23;13.90;1.00
9943;DHT22;5010;45.080;7.634;2024-03-25T15:14:50;13.70;1.00
9943;DHT22;5010;45.080;7.634;2024-03-25T15:17:16;13.50;1.00
9943;DHT22;5010;45.080;7.634;2024-03-25T15:19:43;13.50;1.00
9943;DHT22;5010;45.080;7.634;2024-03-25T15:22:11;13.50;1.00
9943;DHT22;5010;45.080;7.634;2024-03-25T15:24:38;13.50;1.00
9943;DHT22;5010;45.080;7.634;2024-03-25T15:27:04;13.40;1.00
9943;DHT22;5010;45.080;7.634;2024-03-25T15:29:31;13.30;1.00
9943;DHT22;5010;45.080;7.634;2024-03-25T15:31:58;13.40;1.00
9943;DHT22;5010;45.080;7.634;2024-03-25T15:34:25;13.50;1.00
9943;DHT22;5010;45.080;7.634;2024-03-25T15:36:51;13.50;1.00
9943;DHT22;5010;45.080;7.634;2024-03-25T15:39:20;13.40;1.00
9943;DHT22;5010;45.080;7.634;2024-03-25T15:41:46;13.30;1.00
9943;DHT22;5010;45.080;7.634;2024-03-25T15:44:15;13.30;1.00
9943;DHT22;5010;45.080;7.634;2024-03-25T15:46:42;13.20;1.00
9943;DHT22;5010;45.080;7.634;2024-03-25T15:49:08;13.10;1.00
9943;DHT22;5010;45.080;7.634;2024-03-25T15:51:35;13.10;1.00
9943;DHT22;5010;45.080;7.634;2024-03-25T15:54:02;13.00;1.00
9943;DHT22;5010;45.080;7.634;2024-03-25T15:56:30;13.00;1.00
9943;DHT22;5010;45.080;7.634;2024-03-25T15:58:57;13.10;1.00
9943;DHT22;5010;45.080;7.634;2024-03-25T16:01:23;13.10;1.00
9943;DHT22;5010;45.080;7.634;2024-03-25T16:03:50;13.10;1.00
9943;DHT22;5010;45.080;7.634;2024-03-25T16:06:17;13.10;1.00
9943;DHT22;5010;45.080;7.634;2024-03-25T16:08:43;13.10;1.00
9943;DHT22;5010;45.080;7.634;2024-03-25T16:11:15;13.10;1.00
9943;DHT22;5010;45.080;7.634;2024-03-25T16:13:43;13.20;1.00
9943;DHT22;5010;45.080;7.634;2024-03-25T16:16:10;13.30;1.00
9943;DHT22;5010;45.080;7.634;2024-03-25T16:18:37;13.30;1.00
9943;DHT22;5010;45.080;7.634;2024-03-25T16:21:12;13.30;1.00
9943;DHT22;5010;45.080;7.634;2024-03-25T16:23:39;13.30;1.00
9943;DHT22;5010;45.080;7.634;2024-03-25T16:26:06;13.30;1.00